Aurora, Nevada
Current Conditions -  °F | °C
As of 1:52 AM on Friday 19 Dec 2014 (Local Time) from KBAN Reporting Station
Clear Clear  
Wind Chill: 28°   Ceiling: Unl
Heat Index: 34°   Visibility: NA
Dew Point:   Wind: 7mph
Humidity: 35%   Direction: 350°N
Pressure: 30.09"   Gusts: NA
Location:  38.7596°N, 119.34°W
Report Text: KBAN 190952Z AUTO 35006KT CLR 01/M13 A3009 RMK AO2 SLP174 T00111128 FZRANO $
Loading
Personal Weather Stations






























Interactive Weather Map New forecast layout! Learn more

10-Day Weather Forecast

Advertisements
Track Severe Weather on mobile